createdAt,value
2019-05-25T00:00:21.855Z,0.00
2019-05-25T00:01:21.839Z,0.00
2019-05-25T00:02:21.826Z,0.00
2019-05-25T00:03:21.817Z,0.00
2019-05-25T00:04:21.820Z,0.00
2019-05-25T00:05:21.821Z,0.00
2019-05-25T00:06:21.756Z,0.00
2019-05-25T00:07:21.873Z,0.00
2019-05-25T00:08:21.741Z,0.00
2019-05-25T00:09:21.737Z,0.00
2019-05-25T00:10:21.713Z,0.00
2019-05-25T00:11:21.713Z,0.00
2019-05-25T00:12:21.691Z,0.00
2019-05-25T00:13:21.689Z,0.00
2019-05-25T00:14:21.686Z,0.00
2019-05-25T00:15:21.673Z,0.00
2019-05-25T00:16:21.667Z,0.00
2019-05-25T00:17:21.699Z,0.00
2019-05-25T00:18:21.624Z,0.00
2019-05-25T00:19:21.612Z,0.00
2019-05-25T00:20:21.611Z,0.00
2019-05-25T00:21:21.587Z,0.00
2019-05-25T00:22:21.587Z,0.00
2019-05-25T00:23:21.582Z,0.00
2019-05-25T00:24:21.640Z,0.00
2019-05-25T00:25:21.564Z,0.00
2019-05-25T00:26:21.615Z,0.00
2019-05-25T00:27:21.571Z,0.00
2019-05-25T00:28:21.528Z,0.00
2019-05-25T00:29:21.500Z,0.00
2019-05-25T00:30:21.490Z,0.00
2019-05-25T00:31:21.487Z,0.00
2019-05-25T00:32:21.472Z,0.00
2019-05-25T00:33:21.462Z,0.00
2019-05-25T00:34:21.454Z,0.00
2019-05-25T00:35:21.475Z,0.00
2019-05-25T00:36:21.417Z,0.00
2019-05-25T00:37:21.411Z,0.00
2019-05-25T00:38:21.437Z,0.00
2019-05-25T00:39:21.410Z,0.00
2019-05-25T00:40:21.384Z,0.00
2019-05-25T00:41:21.377Z,0.00
2019-05-25T00:42:21.375Z,0.00
2019-05-25T00:43:21.358Z,0.00
2019-05-25T00:44:21.359Z,0.00
2019-05-25T00:45:21.326Z,0.00
2019-05-25T00:46:21.313Z,0.00
2019-05-25T00:47:21.358Z,0.00
2019-05-25T00:48:21.317Z,0.00
2019-05-25T00:49:21.307Z,0.00
2019-05-25T00:50:21.313Z,0.00
2019-05-25T00:51:21.278Z,0.00
2019-05-25T00:52:21.272Z,0.00
2019-05-25T00:53:21.250Z,0.00
2019-05-25T00:54:28.080Z,0.00
2019-05-25T00:55:22.225Z,0.00
2019-05-25T00:56:21.212Z,0.00
2019-05-25T00:57:21.234Z,0.00
2019-05-25T00:58:21.200Z,0.00
2019-05-25T00:59:21.194Z,0.00
2019-05-25T01:00:21.177Z,0.00
2019-05-25T01:01:24.383Z,0.00
2019-05-25T01:02:21.155Z,0.00
2019-05-25T01:03:21.155Z,0.00
2019-05-25T01:04:21.167Z,0.00
2019-05-25T01:05:21.106Z,0.00
2019-05-25T01:06:21.095Z,0.00
2019-05-25T01:07:21.081Z,0.00
2019-05-25T01:08:21.071Z,0.00
2019-05-25T01:09:21.076Z,0.00
2019-05-25T01:10:21.059Z,0.00
2019-05-25T01:11:21.048Z,0.00
2019-05-25T01:12:21.050Z,0.00
2019-05-25T01:13:21.043Z,0.00
2019-05-25T01:14:21.008Z,0.00
2019-05-25T01:15:21.042Z,0.00
2019-05-25T01:16:21.010Z,0.00
2019-05-25T01:17:20.988Z,0.00
2019-05-25T01:18:20.978Z,0.00
2019-05-25T01:19:20.960Z,0.00
2019-05-25T01:20:20.960Z,0.00
2019-05-25T01:21:20.931Z,0.00
2019-05-25T01:22:20.932Z,0.00
2019-05-25T01:23:20.908Z,0.00
2019-05-25T01:24:20.899Z,0.00
2019-05-25T01:25:20.952Z,0.00
2019-05-25T01:26:20.881Z,0.00
2019-05-25T01:27:20.864Z,0.00
2019-05-25T01:28:20.852Z,0.00
2019-05-25T01:29:20.840Z,0.00
2019-05-25T01:30:20.828Z,0.00
2019-05-25T01:31:20.853Z,0.00
2019-05-25T01:32:20.852Z,0.00
2019-05-25T01:33:20.806Z,0.00
2019-05-25T01:34:20.790Z,0.00
2019-05-25T01:35:20.782Z,0.00
2019-05-25T01:36:20.766Z,0.00
2019-05-25T01:37:20.750Z,0.00
2019-05-25T01:38:20.744Z,0.00
2019-05-25T01:39:20.740Z,0.00
2019-05-25T01:40:20.726Z,0.00
2019-05-25T01:41:20.712Z,0.00
2019-05-25T01:42:20.700Z,0.00
2019-05-25T01:43:20.682Z,0.00
2019-05-25T01:44:20.678Z,0.00
2019-05-25T01:45:20.668Z,0.00
2019-05-25T01:46:20.678Z,0.00
2019-05-25T01:47:20.648Z,0.00
2019-05-25T01:48:20.639Z,0.00
2019-05-25T01:49:20.630Z,0.00
2019-05-25T01:50:20.618Z,0.00
2019-05-25T01:51:20.602Z,0.00
2019-05-25T01:52:20.592Z,0.00
2019-05-25T01:53:20.620Z,0.00
2019-05-25T01:54:20.564Z,0.00
2019-05-25T01:55:20.570Z,0.00
2019-05-25T01:56:20.668Z,0.00
2019-05-25T01:57:20.588Z,0.00
2019-05-25T01:58:20.531Z,0.00
2019-05-25T01:59:20.532Z,0.00
2019-05-25T02:00:20.506Z,0.00
2019-05-25T02:01:20.490Z,0.00
2019-05-25T02:02:20.476Z,0.00
2019-05-25T02:03:20.462Z,0.00
2019-05-25T02:04:20.460Z,0.00
2019-05-25T02:05:20.440Z,0.00
2019-05-25T02:06:20.424Z,0.00
2019-05-25T02:07:20.427Z,0.00
2019-05-25T02:08:20.414Z,0.00
2019-05-25T02:09:20.406Z,0.00
2019-05-25T02:10:20.383Z,0.00
2019-05-25T02:11:20.370Z,0.00
2019-05-25T02:12:20.358Z,0.00
2019-05-25T02:13:20.350Z,0.00
2019-05-25T02:14:29.052Z,0.00
2019-05-25T02:16:02.499Z,0.00
2019-05-25T02:17:02.460Z,0.00
2019-05-25T02:18:02.444Z,0.00
2019-05-25T02:19:02.437Z,0.00
2019-05-25T02:20:02.432Z,0.00
2019-05-25T02:21:02.651Z,0.00
2019-05-25T02:22:02.403Z,0.00
2019-05-25T02:23:02.394Z,0.00
2019-05-25T02:24:02.380Z,0.00
2019-05-25T02:25:16.424Z,0.00
2019-05-25T02:26:03.362Z,0.00
2019-05-25T02:27:02.356Z,0.00
2019-05-25T02:28:02.340Z,0.00
2019-05-25T02:29:02.321Z,0.00
2019-05-25T02:30:02.437Z,0.00
2019-05-25T02:31:02.322Z,4.00
2019-05-25T02:32:02.300Z,4.00
2019-05-25T02:33:02.296Z,0.00
2019-05-25T02:34:02.276Z,0.00
2019-05-25T02:35:02.280Z,0.00
2019-05-25T02:36:02.258Z,4.00
2019-05-25T02:37:02.244Z,4.00
2019-05-25T02:38:02.241Z,0.00
2019-05-25T02:39:02.222Z,4.00
2019-05-25T02:40:02.239Z,0.00
2019-05-25T02:41:02.200Z,4.00
2019-05-25T02:42:02.209Z,4.00
2019-05-25T02:43:02.182Z,4.00
2019-05-25T02:44:02.171Z,8.00
2019-05-25T02:45:02.161Z,8.00
2019-05-25T02:46:02.146Z,8.00
2019-05-25T02:47:02.133Z,8.00
2019-05-25T02:48:02.130Z,8.00
2019-05-25T02:49:02.116Z,8.00
2019-05-25T02:50:02.216Z,12.00
2019-05-25T02:51:02.118Z,12.00
2019-05-25T02:52:02.078Z,12.00
2019-05-25T02:53:02.061Z,12.00
2019-05-25T02:54:02.056Z,12.00
2019-05-25T02:55:02.046Z,16.00
2019-05-25T02:56:02.027Z,16.00
2019-05-25T02:57:02.018Z,20.00
2019-05-25T02:58:02.014Z,20.00
2019-05-25T02:59:01.994Z,16.00
2019-05-25T03:00:02.021Z,20.00
2019-05-25T03:01:01.979Z,24.00
2019-05-25T03:02:01.962Z,20.00
2019-05-25T03:03:01.978Z,24.00
2019-05-25T03:04:01.938Z,28.00
2019-05-25T03:05:01.932Z,28.00
2019-05-25T03:06:01.976Z,28.00
2019-05-25T03:07:01.918Z,32.00
2019-05-25T03:08:01.905Z,32.00
2019-05-25T03:09:01.880Z,32.00
2019-05-25T03:10:01.879Z,36.00
2019-05-25T03:11:01.870Z,40.00
2019-05-25T03:12:01.860Z,40.00
2019-05-25T03:13:01.849Z,44.00
2019-05-25T03:14:01.834Z,44.00
2019-05-25T03:15:01.869Z,44.00
2019-05-25T03:16:01.806Z,48.00
2019-05-25T03:17:01.795Z,52.00
2019-05-25T03:18:01.831Z,52.00
2019-05-25T03:19:01.765Z,56.00
2019-05-25T03:20:01.864Z,56.00
2019-05-25T03:21:01.747Z,64.00
2019-05-25T03:22:01.737Z,64.00
2019-05-25T03:23:01.744Z,68.00
2019-05-25T03:24:01.753Z,68.00
2019-05-25T03:25:01.785Z,68.00
2019-05-25T03:26:01.692Z,72.00
2019-05-25T03:27:01.677Z,76.00
2019-05-25T03:28:01.659Z,80.00
2019-05-25T03:29:01.655Z,84.00
2019-05-25T03:30:01.751Z,84.00
2019-05-25T03:31:01.653Z,88.00
2019-05-25T03:32:01.624Z,88.00
2019-05-25T03:33:01.633Z,92.00
2019-05-25T03:34:01.671Z,92.00
2019-05-25T03:35:01.637Z,92.00
2019-05-25T03:36:01.605Z,96.00
2019-05-25T03:37:01.587Z,92.00
2019-05-25T03:38:01.560Z,96.00
2019-05-25T03:39:01.555Z,96.00
2019-05-25T03:40:01.550Z,96.00
2019-05-25T03:41:01.521Z,100.00
2019-05-25T03:42:01.513Z,100.00
2019-05-25T03:43:01.507Z,100.00
2019-05-25T03:44:01.489Z,100.00
2019-05-25T03:45:01.518Z,104.00
2019-05-25T03:46:01.482Z,104.00
2019-05-25T03:47:01.473Z,104.00
2019-05-25T03:48:01.485Z,108.00
2019-05-25T03:49:01.432Z,108.00
2019-05-25T03:50:01.423Z,108.00
2019-05-25T03:51:01.416Z,112.00
2019-05-25T03:52:01.399Z,112.00
2019-05-25T03:53:01.396Z,116.00
2019-05-25T03:54:01.394Z,116.00
2019-05-25T03:55:01.377Z,120.00
2019-05-25T03:56:05.725Z,124.00
2019-05-25T03:57:02.342Z,128.00
2019-05-25T03:58:01.341Z,132.00
2019-05-25T03:59:01.336Z,136.00
2019-05-25T04:00:01.348Z,136.00
2019-05-25T04:01:01.317Z,140.00
2019-05-25T04:02:01.293Z,140.00
2019-05-25T04:03:01.291Z,140.00
2019-05-25T04:04:01.283Z,144.00
2019-05-25T04:05:01.293Z,148.00
2019-05-25T04:06:01.259Z,160.00
2019-05-25T04:07:01.259Z,164.00
2019-05-25T04:08:01.317Z,172.00
2019-05-25T04:09:01.219Z,180.00
2019-05-25T04:10:01.556Z,188.00
2019-05-25T04:11:01.203Z,196.00
2019-05-25T04:12:01.181Z,200.00
2019-05-25T04:13:01.169Z,208.00
2019-05-25T04:14:01.167Z,212.00
2019-05-25T04:15:01.156Z,212.00
2019-05-25T04:16:01.131Z,216.00
2019-05-25T04:17:01.152Z,220.00
2019-05-25T04:18:01.113Z,224.00
2019-05-25T04:19:01.347Z,228.00
2019-05-25T04:20:01.099Z,240.00
2019-05-25T04:21:01.075Z,256.00
2019-05-25T04:22:01.073Z,272.00
2019-05-25T04:23:01.063Z,276.00
2019-05-25T04:24:01.055Z,288.00
2019-05-25T04:25:01.045Z,300.00
2019-05-25T04:26:01.031Z,316.00
2019-05-25T04:27:01.011Z,324.00
2019-05-25T04:28:01.014Z,324.00
2019-05-25T04:29:00.998Z,324.00
2019-05-25T04:30:00.990Z,324.00
2019-05-25T04:31:00.974Z,336.00
2019-05-25T04:32:00.977Z,348.00
2019-05-25T04:33:00.950Z,352.00
2019-05-25T04:34:00.949Z,356.00
2019-05-25T04:35:00.929Z,360.00
2019-05-25T04:36:00.920Z,356.00
2019-05-25T04:37:00.917Z,344.00
2019-05-25T04:38:00.893Z,328.00
2019-05-25T04:39:00.888Z,328.00
2019-05-25T04:40:00.874Z,324.00
2019-05-25T04:41:00.872Z,316.00
2019-05-25T04:42:00.853Z,308.00
2019-05-25T04:43:00.859Z,316.00
2019-05-25T04:44:00.828Z,312.00
2019-05-25T04:45:00.820Z,308.00
2019-05-25T04:46:00.797Z,308.00
2019-05-25T04:47:00.785Z,316.00
2019-05-25T04:48:00.779Z,312.00
2019-05-25T04:49:00.787Z,320.00
2019-05-25T04:50:00.754Z,340.00
2019-05-25T04:51:00.751Z,364.00
2019-05-25T04:52:00.745Z,368.00
2019-05-25T04:53:00.729Z,376.00
2019-05-25T04:54:00.722Z,392.00
2019-05-25T04:55:00.716Z,400.00
2019-05-25T04:56:00.689Z,400.00
2019-05-25T04:57:00.686Z,408.00
2019-05-25T04:58:00.669Z,404.00
2019-05-25T04:59:00.664Z,404.00
2019-05-25T05:00:00.655Z,412.00
2019-05-25T05:01:00.632Z,408.00
2019-05-25T05:02:00.640Z,412.00
2019-05-25T05:03:00.618Z,416.00
2019-05-25T05:04:00.608Z,424.00
2019-05-25T05:05:00.597Z,432.00
2019-05-25T05:06:00.588Z,440.00
2019-05-25T05:07:00.571Z,440.00
2019-05-25T05:08:00.561Z,444.00
2019-05-25T05:09:00.545Z,432.00
2019-05-25T05:10:03.085Z,428.00
2019-05-25T05:11:00.536Z,436.00
2019-05-25T05:12:00.520Z,444.00
2019-05-25T05:13:00.510Z,448.00
2019-05-25T05:14:00.492Z,444.00
2019-05-25T05:15:00.542Z,440.00
2019-05-25T05:16:00.472Z,440.00
2019-05-25T05:17:00.468Z,448.00
2019-05-25T05:18:00.495Z,444.00
2019-05-25T05:19:00.441Z,440.00
2019-05-25T05:20:00.425Z,444.00
2019-05-25T05:21:00.414Z,436.00
2019-05-25T05:22:00.435Z,428.00
2019-05-25T05:23:00.399Z,412.00
2019-05-25T05:24:00.378Z,392.00
2019-05-25T05:25:00.377Z,400.00
2019-05-25T05:26:00.357Z,388.00
2019-05-25T05:27:00.351Z,372.00
2019-05-25T05:28:00.338Z,348.00
2019-05-25T05:29:00.340Z,380.00
2019-05-25T05:30:00.318Z,340.00
2019-05-25T05:31:00.302Z,384.00
2019-05-25T05:32:00.295Z,432.00
2019-05-25T05:33:00.290Z,444.00
2019-05-25T05:34:00.274Z,456.00
2019-05-25T05:35:00.263Z,492.00
2019-05-25T05:36:00.250Z,516.00
2019-05-25T05:37:00.232Z,548.00
2019-05-25T05:38:00.225Z,548.00
2019-05-25T05:39:00.249Z,548.00
2019-05-25T05:40:00.206Z,536.00
2019-05-25T05:41:00.196Z,532.00
2019-05-25T05:42:00.203Z,532.00
2019-05-25T05:43:00.214Z,536.00
2019-05-25T05:44:00.158Z,512.00
2019-05-25T05:45:00.210Z,532.00
2019-05-25T05:46:00.147Z,532.00
2019-05-25T05:47:00.224Z,516.00
2019-05-25T05:48:00.122Z,528.00
2019-05-25T05:49:00.178Z,520.00
2019-05-25T05:50:00.113Z,492.00
2019-05-25T05:51:00.125Z,556.00
2019-05-25T05:52:00.074Z,500.00
2019-05-25T05:53:00.072Z,532.00
2019-05-25T05:54:00.048Z,556.00
2019-05-25T05:55:00.039Z,588.00
2019-05-25T05:56:00.030Z,612.00
2019-05-25T05:57:11.670Z,612.00
2019-05-25T05:58:01.009Z,644.00
2019-05-25T05:59:00.004Z,652.00
2019-05-25T05:59:59.982Z,644.00
2019-05-25T06:00:59.975Z,660.00
2019-05-25T06:01:59.974Z,700.00
2019-05-25T06:02:59.964Z,668.00
2019-05-25T06:03:59.935Z,672.00
2019-05-25T06:04:59.924Z,684.00
2019-05-25T06:05:59.912Z,692.00
2019-05-25T06:06:59.907Z,720.00
2019-05-25T06:07:59.900Z,808.00
2019-05-25T06:08:59.912Z,804.00
2019-05-25T06:09:59.876Z,792.00
2019-05-25T06:10:59.858Z,772.00
2019-05-25T06:11:59.851Z,920.00
2019-05-25T06:12:59.849Z,1100.00
2019-05-25T06:13:59.830Z,1188.00
2019-05-25T06:14:59.815Z,1152.00
2019-05-25T06:15:59.808Z,736.00
2019-05-25T06:16:59.821Z,976.00
2019-05-25T06:17:59.805Z,1056.00
2019-05-25T06:18:59.776Z,1192.00
2019-05-25T06:19:59.776Z,748.00
2019-05-25T06:20:59.744Z,1008.00
2019-05-25T06:21:59.756Z,1168.00
2019-05-25T06:22:59.719Z,792.00
2019-05-25T06:23:59.726Z,588.00
2019-05-25T06:24:59.704Z,720.00
2019-05-25T06:25:59.759Z,1216.00
2019-05-25T06:26:59.690Z,908.00
2019-05-25T06:27:59.673Z,1416.00
2019-05-25T06:28:59.669Z,1036.00
2019-05-25T06:29:59.669Z,948.00
2019-05-25T06:30:59.637Z,1436.00
2019-05-25T06:31:59.645Z,876.00
2019-05-25T06:32:59.619Z,1176.00
2019-05-25T06:33:59.638Z,1320.00
2019-05-25T06:34:59.604Z,1312.00
2019-05-25T06:35:59.584Z,1220.00
2019-05-25T06:36:59.588Z,1312.00
2019-05-25T06:37:59.583Z,1592.00
2019-05-25T06:38:59.552Z,2068.00
2019-05-25T06:39:59.532Z,1372.00
2019-05-25T06:40:59.574Z,1568.00
2019-05-25T06:41:59.592Z,1784.00
2019-05-25T06:42:59.514Z,1992.00
2019-05-25T06:43:59.644Z,1984.00
2019-05-25T06:44:59.476Z,2652.00
2019-05-25T06:45:59.492Z,2608.00
2019-05-25T06:46:59.479Z,1520.00
2019-05-25T06:47:59.446Z,1708.00
2019-05-25T06:48:59.469Z,1984.00
2019-05-25T06:49:59.430Z,1648.00
2019-05-25T06:50:59.430Z,1580.00
2019-05-25T06:51:59.454Z,2536.00
2019-05-25T06:52:59.401Z,3104.00
2019-05-25T06:53:59.374Z,1904.00
2019-05-25T06:54:59.489Z,2484.00
2019-05-25T06:55:59.352Z,2320.00
2019-05-25T06:56:59.349Z,7584.00
2019-05-25T06:57:59.330Z,1296.00
2019-05-25T06:58:59.338Z,1364.00
2019-05-25T06:59:59.310Z,1528.00
2019-05-25T07:00:59.311Z,2088.00
2019-05-25T07:01:59.296Z,1540.00
2019-05-25T07:02:59.278Z,1792.00
2019-05-25T07:03:59.266Z,1516.00
2019-05-25T07:04:59.246Z,1600.00
2019-05-25T07:05:59.322Z,1960.00
2019-05-25T07:06:59.241Z,2124.00
2019-05-25T07:07:59.220Z,1740.00
2019-05-25T07:08:59.220Z,1800.00
2019-05-25T07:09:59.196Z,1056.00
2019-05-25T07:10:59.193Z,1204.00
2019-05-25T07:11:59.182Z,1436.00
2019-05-25T07:12:59.174Z,1728.00
2019-05-25T07:13:59.189Z,1240.00
2019-05-25T07:14:59.143Z,1428.00
2019-05-25T07:15:59.132Z,1884.00
2019-05-25T07:16:59.124Z,1624.00
2019-05-25T07:17:59.110Z,2080.00
2019-05-25T07:18:59.098Z,1376.00
2019-05-25T07:19:59.086Z,1604.00
2019-05-25T07:20:59.123Z,1672.00
2019-05-25T07:21:59.063Z,1544.00
2019-05-25T07:22:59.092Z,1504.00
2019-05-25T07:23:59.045Z,1644.00
2019-05-25T07:24:59.042Z,1164.00
2019-05-25T07:25:59.032Z,1108.00
2019-05-25T07:26:59.030Z,1284.00
2019-05-25T07:28:00.451Z,1368.00
2019-05-25T07:28:58.988Z,1648.00
2019-05-25T07:29:58.985Z,1552.00
2019-05-25T07:30:58.968Z,2244.00
2019-05-25T07:31:58.964Z,1960.00
2019-05-25T07:32:58.949Z,1736.00
2019-05-25T07:33:58.928Z,1424.00
2019-05-25T07:34:58.926Z,1184.00
2019-05-25T07:35:58.912Z,1160.00
2019-05-25T07:36:58.901Z,1108.00
2019-05-25T07:37:58.890Z,980.00
2019-05-25T07:38:58.872Z,968.00
2019-05-25T07:39:58.863Z,976.00
2019-05-25T07:40:58.847Z,992.00
2019-05-25T07:41:58.850Z,1076.00
2019-05-25T07:42:58.850Z,1080.00
2019-05-25T07:43:58.817Z,972.00
2019-05-25T07:44:58.809Z,888.00
2019-05-25T07:45:58.810Z,832.00
2019-05-25T07:46:58.824Z,764.00
2019-05-25T07:47:58.799Z,788.00
2019-05-25T07:48:58.762Z,880.00
2019-05-25T07:49:58.749Z,1000.00
2019-05-25T07:50:58.730Z,956.00
2019-05-25T07:51:58.731Z,1148.00
2019-05-25T07:52:58.741Z,1252.00
2019-05-25T07:53:58.701Z,1416.00
2019-05-25T07:54:58.707Z,1656.00
2019-05-25T07:55:58.687Z,1756.00
2019-05-25T07:56:58.677Z,1568.00
2019-05-25T07:58:13.589Z,1480.00
2019-05-25T07:58:59.647Z,1404.00
2019-05-25T07:59:58.632Z,1128.00
2019-05-25T08:00:58.720Z,996.00
2019-05-25T08:01:58.611Z,1144.00
2019-05-25T08:02:58.609Z,1200.00
2019-05-25T08:03:58.615Z,1152.00
2019-05-25T08:04:58.581Z,980.00
2019-05-25T08:05:58.569Z,964.00
2019-05-25T08:06:58.558Z,1084.00
2019-05-25T08:07:58.564Z,1076.00
2019-05-25T08:08:58.545Z,1076.00
2019-05-25T08:09:58.543Z,1168.00
2019-05-25T08:10:58.505Z,1160.00
2019-05-25T08:11:58.509Z,1260.00
2019-05-25T08:12:58.529Z,1536.00
2019-05-25T08:13:58.481Z,1660.00
2019-05-25T08:14:58.500Z,1380.00
2019-05-25T08:15:58.461Z,1304.00
2019-05-25T08:16:58.443Z,1088.00
2019-05-25T08:17:58.437Z,888.00
2019-05-25T08:18:58.419Z,940.00
2019-05-25T08:19:58.421Z,972.00
2019-05-25T08:20:58.410Z,1092.00
2019-05-25T08:21:58.385Z,960.00
2019-05-25T08:22:58.383Z,912.00
2019-05-25T08:23:58.372Z,844.00
2019-05-25T08:24:58.429Z,796.00
2019-05-25T08:25:58.349Z,828.00
2019-05-25T08:26:58.417Z,880.00
2019-05-25T08:27:58.319Z,880.00
2019-05-25T08:28:58.315Z,916.00
2019-05-25T08:29:58.295Z,880.00
2019-05-25T08:31:01.322Z,932.00
2019-05-25T08:31:58.283Z,860.00
2019-05-25T08:32:58.262Z,876.00
2019-05-25T08:33:58.251Z,1048.00
2019-05-25T08:34:58.247Z,920.00
2019-05-25T08:35:58.241Z,900.00
2019-05-25T08:36:58.235Z,944.00
2019-05-25T08:37:58.220Z,936.00
2019-05-25T08:38:58.194Z,964.00
2019-05-25T08:39:58.183Z,1016.00
2019-05-25T08:40:58.202Z,976.00
2019-05-25T08:41:58.167Z,980.00
2019-05-25T08:42:58.161Z,912.00
2019-05-25T08:43:58.146Z,936.00
2019-05-25T08:44:58.133Z,936.00
2019-05-25T08:45:58.131Z,984.00
2019-05-25T08:46:58.115Z,980.00
2019-05-25T08:47:58.118Z,876.00
2019-05-25T08:48:58.085Z,840.00
2019-05-25T08:49:58.066Z,828.00
2019-05-25T08:50:59.709Z,772.00
2019-05-25T08:51:58.059Z,800.00
2019-05-25T08:52:58.104Z,776.00
2019-05-25T08:53:58.031Z,884.00
2019-05-25T08:54:58.021Z,1076.00
2019-05-25T08:55:58.011Z,1128.00
2019-05-25T08:56:58.003Z,1212.00
2019-05-25T08:57:57.979Z,1104.00
2019-05-25T08:58:57.977Z,952.00
2019-05-25T08:59:57.968Z,908.00
2019-05-25T09:00:57.947Z,996.00
2019-05-25T09:01:57.948Z,928.00
2019-05-25T09:02:57.938Z,1088.00
2019-05-25T09:03:57.913Z,1260.00
2019-05-25T09:04:57.912Z,1468.00
2019-05-25T09:05:57.909Z,1424.00
2019-05-25T09:06:57.884Z,1484.00
2019-05-25T09:07:57.868Z,1524.00
2019-05-25T09:08:57.861Z,1712.00
2019-05-25T09:09:57.839Z,1992.00
2019-05-25T09:10:57.833Z,2264.00
2019-05-25T09:11:57.823Z,2392.00
2019-05-25T09:12:57.811Z,2200.00
2019-05-25T09:13:57.803Z,2212.00
2019-05-25T09:14:57.789Z,2188.00
2019-05-25T09:15:57.785Z,2204.00
2019-05-25T09:16:57.776Z,2204.00
2019-05-25T09:17:57.756Z,2028.00
2019-05-25T09:18:57.747Z,1832.00
2019-05-25T09:19:57.731Z,1524.00
2019-05-25T09:20:57.728Z,1340.00
2019-05-25T09:22:02.383Z,1440.00
2019-05-25T09:22:58.696Z,1196.00
2019-05-25T09:23:57.687Z,1184.00
2019-05-25T09:24:57.675Z,1116.00
2019-05-25T09:25:57.690Z,1144.00
2019-05-25T09:26:57.655Z,1092.00
2019-05-25T09:27:57.656Z,1068.00
2019-05-25T09:29:04.582Z,1108.00
2019-05-25T09:29:58.624Z,948.00
2019-05-25T09:30:57.629Z,864.00
2019-05-25T09:31:57.615Z,824.00
2019-05-25T09:32:57.582Z,760.00
2019-05-25T09:33:57.574Z,792.00
2019-05-25T09:34:57.588Z,676.00
2019-05-25T09:35:57.558Z,612.00
2019-05-25T09:36:57.554Z,596.00
2019-05-25T09:37:57.537Z,608.00
2019-05-25T09:38:57.526Z,612.00
2019-05-25T09:39:57.503Z,660.00
2019-05-25T09:40:57.496Z,704.00
2019-05-25T09:41:57.496Z,708.00
2019-05-25T09:42:57.533Z,768.00
2019-05-25T09:43:57.537Z,760.00
2019-05-25T09:44:57.454Z,800.00
2019-05-25T09:45:57.451Z,832.00
2019-05-25T09:46:57.434Z,908.00
2019-05-25T09:47:57.490Z,1100.00
2019-05-25T09:48:57.409Z,1920.00
2019-05-25T09:49:57.406Z,1852.00
2019-05-25T09:50:57.408Z,1832.00
2019-05-25T09:51:57.377Z,2044.00
2019-05-25T09:52:57.378Z,2216.00
2019-05-25T09:53:57.370Z,2440.00
2019-05-25T09:54:57.345Z,2676.00
2019-05-25T09:55:57.337Z,2416.00
2019-05-25T09:56:57.324Z,1944.00
2019-05-25T09:57:57.309Z,1556.00
2019-05-25T09:58:57.306Z,1348.00
2019-05-25T09:59:57.285Z,1192.00
2019-05-25T10:00:57.314Z,1052.00
2019-05-25T10:01:57.266Z,936.00
2019-05-25T10:02:57.251Z,840.00
2019-05-25T10:03:57.265Z,808.00
2019-05-25T10:04:57.240Z,816.00
2019-05-25T10:05:57.222Z,952.00
2019-05-25T10:06:57.225Z,912.00
2019-05-25T10:07:57.209Z,952.00
2019-05-25T10:08:57.209Z,968.00
2019-05-25T10:09:57.185Z,1060.00
2019-05-25T10:10:57.176Z,1176.00
2019-05-25T10:11:57.152Z,1436.00
2019-05-25T10:12:57.144Z,1648.00
2019-05-25T10:13:57.171Z,1712.00
2019-05-25T10:14:57.120Z,1816.00
2019-05-25T10:15:57.121Z,2076.00
2019-05-25T10:16:57.096Z,1728.00
2019-05-25T10:17:57.095Z,1796.00
2019-05-25T10:18:57.100Z,2472.00
2019-05-25T10:19:57.068Z,3556.00
2019-05-25T10:20:57.054Z,3628.00
2019-05-25T10:21:59.396Z,3464.00
2019-05-25T10:22:57.029Z,3416.00
2019-05-25T10:23:57.036Z,3380.00
2019-05-25T10:24:57.018Z,3760.00
2019-05-25T10:25:57.001Z,3352.00
2019-05-25T10:26:56.989Z,3012.00
2019-05-25T10:27:56.995Z,2996.00
2019-05-25T10:28:56.982Z,2760.00
2019-05-25T10:29:56.992Z,2520.00
2019-05-25T10:30:56.970Z,3284.00
2019-05-25T10:31:56.939Z,2192.00
2019-05-25T10:32:56.980Z,2220.00
2019-05-25T10:33:56.921Z,2288.00
2019-05-25T10:34:56.942Z,2160.00
2019-05-25T10:35:56.924Z,2132.00
2019-05-25T10:36:56.902Z,2060.00
2019-05-25T10:37:56.870Z,2176.00
2019-05-25T10:38:56.844Z,2492.00
2019-05-25T10:39:56.845Z,1952.00
2019-05-25T10:40:58.584Z,2120.00
2019-05-25T10:41:56.821Z,2560.00
2019-05-25T10:42:56.802Z,2764.00
2019-05-25T10:43:56.796Z,2588.00
2019-05-25T10:44:56.800Z,2816.00
2019-05-25T10:45:56.826Z,2616.00
2019-05-25T10:46:56.764Z,2536.00
2019-05-25T10:47:56.748Z,2428.00
2019-05-25T10:48:56.756Z,3384.00
2019-05-25T10:49:56.730Z,3200.00
2019-05-25T10:50:56.722Z,2964.00
2019-05-25T10:51:56.716Z,2568.00
2019-05-25T10:52:56.712Z,2380.00
2019-05-25T10:53:56.682Z,2308.00
2019-05-25T10:54:56.668Z,2448.00
2019-05-25T10:55:56.659Z,2612.00
2019-05-25T10:56:56.654Z,3172.00
2019-05-25T10:57:56.640Z,2572.00
2019-05-25T10:58:56.893Z,2652.00
2019-05-25T10:59:56.617Z,3600.00
2019-05-25T11:00:56.606Z,2408.00
2019-05-25T11:01:56.589Z,7600.00
2019-05-25T11:02:56.586Z,11416.00
2019-05-25T11:03:56.602Z,1704.00
2019-05-25T11:04:56.560Z,1588.00
2019-05-25T11:05:56.667Z,1568.00
2019-05-25T11:06:56.536Z,3260.00
2019-05-25T11:07:56.533Z,3044.00
2019-05-25T11:08:56.527Z,2560.00
2019-05-25T11:09:56.512Z,2104.00
2019-05-25T11:10:56.499Z,2576.00
2019-05-25T11:11:56.485Z,2544.00
2019-05-25T11:12:56.487Z,2700.00
2019-05-25T11:13:56.478Z,2468.00
2019-05-25T11:14:56.453Z,2420.00
2019-05-25T11:15:56.424Z,2028.00
2019-05-25T11:16:56.426Z,2060.00
2019-05-25T11:17:56.407Z,2036.00
2019-05-25T11:18:56.406Z,1960.00
2019-05-25T11:19:56.412Z,1972.00
2019-05-25T11:20:56.393Z,2244.00
2019-05-25T11:21:56.370Z,2064.00
2019-05-25T11:22:56.355Z,3308.00
2019-05-25T11:23:56.336Z,2712.00
2019-05-25T11:24:56.330Z,2228.00
2019-05-25T11:25:56.346Z,2144.00
2019-05-25T11:26:59.583Z,2068.00
2019-05-25T11:27:56.296Z,1896.00
2019-05-25T11:28:56.286Z,1816.00
2019-05-25T11:30:08.444Z,1804.00
2019-05-25T11:30:57.280Z,1892.00
2019-05-25T11:31:59.919Z,1948.00
2019-05-25T11:32:57.237Z,1988.00
2019-05-25T11:33:56.239Z,1852.00
2019-05-25T11:34:56.228Z,1668.00
2019-05-25T11:35:56.213Z,1508.00
2019-05-25T11:36:56.225Z,1436.00
2019-05-25T11:37:56.234Z,1492.00
2019-05-25T11:38:56.736Z,1496.00
2019-05-25T11:39:56.293Z,1620.00
2019-05-25T11:40:57.087Z,1632.00
2019-05-25T11:41:57.075Z,1904.00
2019-05-25T11:42:56.419Z,2124.00
2019-05-25T11:43:56.656Z,1852.00
2019-05-25T11:44:57.086Z,1944.00
2019-05-25T11:45:57.789Z,1936.00
2019-05-25T11:46:56.904Z,1936.00
2019-05-25T11:47:56.074Z,2252.00
2019-05-25T11:48:57.226Z,2516.00
2019-05-25T11:49:56.040Z,2700.00
2019-05-25T11:50:56.036Z,2364.00
2019-05-25T11:51:56.019Z,2248.00
2019-05-25T11:52:56.018Z,3348.00
2019-05-25T11:53:55.999Z,2312.00
2019-05-25T11:54:56.057Z,1900.00
2019-05-25T11:55:55.979Z,1936.00
2019-05-25T11:56:55.967Z,2048.00
2019-05-25T11:57:55.961Z,1788.00
2019-05-25T11:58:55.966Z,1816.00
2019-05-25T11:59:55.969Z,1944.00
2019-05-25T12:00:55.946Z,2248.00
2019-05-25T12:01:55.918Z,2288.00
2019-05-25T12:02:55.909Z,2268.00
2019-05-25T12:03:55.895Z,2056.00
2019-05-25T12:04:55.881Z,2272.00
2019-05-25T12:05:55.864Z,2624.00
2019-05-25T12:06:55.853Z,3220.00
2019-05-25T12:07:55.853Z,2416.00
2019-05-25T12:08:55.822Z,2284.00
2019-05-25T12:09:55.821Z,1996.00
2019-05-25T12:10:55.806Z,1788.00
2019-05-25T12:11:55.804Z,1552.00
2019-05-25T12:12:55.777Z,1868.00
2019-05-25T12:13:55.781Z,1832.00
2019-05-25T12:14:55.759Z,1680.00
2019-05-25T12:15:55.751Z,1452.00
2019-05-25T12:16:55.740Z,1500.00
2019-05-25T12:17:55.760Z,1528.00
2019-05-25T12:18:55.722Z,1376.00
2019-05-25T12:19:55.705Z,1336.00
2019-05-25T12:20:55.688Z,1508.00
2019-05-25T12:21:55.691Z,1608.00
2019-05-25T12:22:55.673Z,1924.00
2019-05-25T12:23:55.705Z,1972.00
2019-05-25T12:24:55.647Z,2124.00
2019-05-25T12:25:55.639Z,2196.00
2019-05-25T12:26:55.666Z,2004.00
2019-05-25T12:27:55.605Z,2012.00
2019-05-25T12:28:55.633Z,1792.00
2019-05-25T12:29:55.591Z,1572.00
2019-05-25T12:30:55.643Z,1324.00
2019-05-25T12:32:03.746Z,1060.00